createdAt,value
2023-08-11T00:00:57.026Z,95027.28
2023-08-11T00:02:58.709Z,95023.41
2023-08-11T00:05:00.377Z,95025.47
2023-08-11T00:07:03.498Z,95021.59
2023-08-11T00:09:08.705Z,95017.50
2023-08-11T00:11:12.553Z,95015.25
2023-08-11T00:13:14.395Z,95019.25
2023-08-11T00:15:16.187Z,95014.09
2023-08-11T00:17:17.911Z,95012.84
2023-08-11T00:19:19.504Z,95016.53
2023-08-11T00:21:21.176Z,95016.81
2023-08-11T00:23:22.910Z,95022.38
2023-08-11T00:25:24.871Z,95016.13
2023-08-11T00:27:26.643Z,95017.38
2023-08-11T00:29:28.438Z,95008.50
2023-08-11T00:31:30.385Z,95012.22
2023-08-11T00:33:32.072Z,95017.72
2023-08-11T00:35:34.625Z,95008.81
2023-08-11T00:37:36.669Z,95016.34
2023-08-11T00:39:38.864Z,95012.47
2023-08-11T00:41:40.515Z,95024.13
2023-08-11T00:43:44.047Z,95017.63
2023-08-11T00:45:46.625Z,95025.38
2023-08-11T00:47:51.967Z,95030.69
2023-08-11T00:49:53.935Z,95025.97
2023-08-11T00:51:56.856Z,95029.44
2023-08-11T00:53:58.517Z,95028.22
2023-08-11T00:56:00.770Z,95025.97
2023-08-11T00:58:02.428Z,95030.06
2023-08-11T01:00:13.733Z,95027.81
2023-08-11T01:02:16.161Z,95023.13
2023-08-11T01:04:19.026Z,95022.50
2023-08-11T01:06:29.868Z,95022.72
2023-08-11T01:08:38.309Z,95017.63
2023-08-11T01:10:46.468Z,95014.16
2023-08-11T01:13:04.836Z,95017.19
2023-08-11T01:15:21.047Z,95018.84
2023-08-11T01:17:22.611Z,95024.13
2023-08-11T01:19:33.377Z,95024.13
2023-08-11T01:21:39.961Z,95021.88
2023-08-11T01:23:42.184Z,95022.91
2023-08-11T01:25:43.761Z,95027.19
2023-08-11T01:27:48.386Z,95020.47
2023-08-11T01:29:50.729Z,95029.84
2023-08-11T01:31:52.339Z,95033.31
2023-08-11T01:33:53.890Z,95030.66
2023-08-11T01:35:56.035Z,95025.31
2023-08-11T01:37:57.690Z,95026.75
2023-08-11T01:40:00.644Z,95024.75
2023-08-11T01:42:02.767Z,95026.53
2023-08-11T01:44:04.848Z,95021.25
2023-08-11T01:46:06.738Z,95025.75
2023-08-11T01:48:08.675Z,95023.50
2023-08-11T01:50:11.357Z,95026.34
2023-08-11T01:52:13.197Z,95018.38
2023-08-11T01:54:15.074Z,95029.16
2023-08-11T01:56:16.615Z,95020.81
2023-08-11T01:58:18.127Z,95021.19
2023-08-11T02:00:22.422Z,95026.91
2023-08-11T02:02:24.953Z,95023.63
2023-08-11T02:04:26.839Z,95023.38
2023-08-11T02:06:28.461Z,95030.44
2023-08-11T02:08:30.002Z,95021.84
2023-08-11T02:10:32.703Z,95021.84
2023-08-11T02:12:34.198Z,95016.13
2023-08-11T02:14:35.796Z,95034.91
2023-08-11T02:16:37.608Z,95030.81
2023-08-11T02:18:39.433Z,95034.88
2023-08-11T02:20:42.662Z,95030.75
2023-08-11T02:22:44.998Z,95026.91
2023-08-11T02:24:46.631Z,95026.66
2023-08-11T02:26:48.360Z,95028.09
2023-08-11T02:28:50.219Z,95032.31
2023-08-11T02:30:51.985Z,95035.59
2023-08-11T02:32:53.649Z,95037.19
2023-08-11T02:34:56.082Z,95039.78
2023-08-11T02:36:58.042Z,95044.84
2023-08-11T02:39:00.840Z,95039.28
2023-08-11T02:41:02.530Z,95036.28
2023-08-11T02:43:04.173Z,95034.22
2023-08-11T02:45:10.687Z,95038.94
2023-08-11T02:47:13.373Z,95037.53
2023-08-11T02:49:15.092Z,95040.81
2023-08-11T02:51:18.722Z,95043.19
2023-08-11T02:53:20.340Z,95041.19
2023-08-11T02:55:22.104Z,95043.06
2023-08-11T02:57:26.439Z,95037.31
2023-08-11T02:59:28.728Z,95041.56
2023-08-11T03:01:30.479Z,95042.19
2023-08-11T03:03:32.340Z,95047.63
2023-08-11T03:05:34.408Z,95046.81
2023-08-11T03:07:36.397Z,95042.34
2023-08-11T03:09:38.361Z,95047.69
2023-08-11T03:11:40.993Z,95047.28
2023-08-11T03:13:44.736Z,95045.72
2023-08-11T03:15:46.364Z,95049.75
2023-08-11T03:17:49.418Z,95055.44
2023-08-11T03:19:54.021Z,95053.78
2023-08-11T03:21:55.833Z,95055.81
2023-08-11T03:23:57.645Z,95059.72
2023-08-11T03:25:59.351Z,95060.13
2023-08-11T03:28:01.954Z,95061.50
2023-08-11T03:30:04.329Z,95056.84
2023-08-11T03:32:06.327Z,95058.97
2023-08-11T03:34:09.452Z,95055.75
2023-08-11T03:36:11.064Z,95053.28
2023-08-11T03:38:19.899Z,95060.06
2023-08-11T03:40:22.417Z,95069.06
2023-08-11T03:42:24.247Z,95060.75
2023-08-11T03:44:26.017Z,95058.31
2023-08-11T03:46:28.014Z,95059.56
2023-08-11T03:48:30.410Z,95057.38
2023-08-11T03:50:32.623Z,95062.09
2023-08-11T03:52:34.858Z,95057.41
2023-08-11T03:54:45.073Z,95059.22
2023-08-11T03:56:47.554Z,95061.88
2023-08-11T03:58:49.160Z,95058.41
2023-08-11T04:00:50.787Z,95054.00
2023-08-11T04:02:52.551Z,95059.75
2023-08-11T04:04:57.221Z,95059.22
2023-08-11T04:06:58.882Z,95053.75
2023-08-11T04:09:01.006Z,95052.94
2023-08-11T04:11:03.697Z,95055.00
2023-08-11T04:13:06.241Z,95055.91
2023-08-11T04:15:10.457Z,95058.75
2023-08-11T04:17:14.952Z,95061.63
2023-08-11T04:19:16.488Z,95056.59
2023-08-11T04:21:19.419Z,95051.50
2023-08-11T04:23:21.765Z,95051.28
2023-08-11T04:25:23.414Z,95055.19
2023-08-11T04:27:25.016Z,95051.94
2023-08-11T04:29:27.382Z,95054.81
2023-08-11T04:31:29.218Z,95065.47
2023-08-11T04:33:33.151Z,95063.03
2023-08-11T04:35:34.791Z,95061.41
2023-08-11T04:37:37.191Z,95062.63
2023-08-11T04:39:39.200Z,95070.38
2023-08-11T04:41:42.012Z,95071.38
2023-08-11T04:43:44.028Z,95071.94
2023-08-11T04:45:45.739Z,95075.22
2023-08-11T04:47:47.887Z,95079.53
2023-08-11T04:49:49.521Z,95073.03
2023-08-11T04:51:51.222Z,95074.03
2023-08-11T04:53:53.417Z,95079.75
2023-08-11T04:55:55.703Z,95076.00
2023-08-11T04:57:59.223Z,95083.81
2023-08-11T05:00:04.037Z,95085.06
2023-08-11T05:02:08.659Z,95076.69
2023-08-11T05:04:11.215Z,95081.19
2023-08-11T05:06:14.168Z,95082.47
2023-08-11T05:08:16.060Z,95085.25
2023-08-11T05:10:20.096Z,95088.38
2023-08-11T05:12:21.951Z,95091.03
2023-08-11T05:14:24.381Z,95092.53
2023-08-11T05:16:29.208Z,95095.19
2023-08-11T05:18:42.959Z,95090.56
2023-08-11T05:20:47.772Z,95099.69
2023-08-11T05:22:49.588Z,95093.97
2023-08-11T05:24:51.468Z,95099.06
2023-08-11T05:26:56.011Z,95097.44
2023-08-11T05:28:57.634Z,95106.13
2023-08-11T05:30:59.334Z,95108.94
2023-08-11T05:33:01.025Z,95108.00
2023-08-11T05:35:02.763Z,95114.97
2023-08-11T05:37:05.992Z,95116.84
2023-08-11T05:39:09.477Z,95113.72
2023-08-11T05:41:13.081Z,95116.91
2023-08-11T05:43:14.976Z,95116.50
2023-08-11T05:45:18.213Z,95118.41
2023-08-11T05:47:20.498Z,95113.63
2023-08-11T05:49:22.662Z,95120.81
2023-08-11T05:51:24.901Z,95108.81
2023-08-11T05:53:27.410Z,95114.88
2023-08-11T05:55:30.369Z,95118.72
2023-08-11T05:57:32.235Z,95125.09
2023-08-11T05:59:37.337Z,95124.41
2023-08-11T06:01:40.535Z,95126.66
2023-08-11T06:03:42.255Z,95119.31
2023-08-11T06:05:44.042Z,95122.31
2023-08-11T06:07:55.789Z,95125.63
2023-08-11T06:10:02.802Z,95122.63
2023-08-11T06:12:04.903Z,95125.03
2023-08-11T06:14:06.418Z,95125.66
2023-08-11T06:16:08.032Z,95124.25
2023-08-11T06:18:09.953Z,95129.69
2023-08-11T06:20:20.603Z,95127.53
2023-08-11T06:22:28.422Z,95131.28
2023-08-11T06:24:30.452Z,95126.97
2023-08-11T06:26:32.065Z,95132.69
2023-08-11T06:28:35.540Z,95126.41
2023-08-11T06:30:37.425Z,95131.72
2023-08-11T06:32:39.248Z,95132.06
2023-08-11T06:34:41.685Z,95125.81
2023-08-11T06:36:44.525Z,95131.97
2023-08-11T06:38:46.143Z,95130.06
2023-08-11T06:40:48.928Z,95134.53
2023-08-11T06:42:51.488Z,95127.47
2023-08-11T06:44:53.341Z,95124.25
2023-08-11T06:46:55.032Z,95128.06
2023-08-11T06:48:56.612Z,95127.09
2023-08-11T06:50:58.503Z,95128.16
2023-08-11T06:53:00.780Z,95125.34
2023-08-11T06:55:02.464Z,95130.63
2023-08-11T06:57:07.143Z,95125.34
2023-08-11T06:59:09.206Z,95129.22
2023-08-11T07:01:10.979Z,95133.81
2023-08-11T07:03:12.648Z,95136.31
2023-08-11T07:05:14.500Z,95137.81
2023-08-11T07:07:16.357Z,95135.69
2023-08-11T07:09:18.197Z,95144.13
2023-08-11T07:11:19.907Z,95148.63
2023-08-11T07:13:21.416Z,95153.97
2023-08-11T07:15:23.072Z,95141.88
2023-08-11T07:17:27.061Z,95142.50
2023-08-11T07:19:30.228Z,95145.38
2023-08-11T07:21:31.843Z,95147.84
2023-08-11T07:23:33.635Z,95143.56
2023-08-11T07:25:35.261Z,95141.88
2023-08-11T07:27:36.930Z,95145.16
2023-08-11T07:29:39.653Z,95152.75
2023-08-11T07:31:41.316Z,95142.72
2023-08-11T07:33:43.867Z,95147.03
2023-08-11T07:35:45.665Z,95148.47
2023-08-11T07:37:47.242Z,95142.94
2023-08-11T07:39:49.470Z,95149.06
2023-08-11T07:41:52.350Z,95142.91
2023-08-11T07:43:54.909Z,95147.19
2023-08-11T07:45:56.738Z,95143.94
2023-08-11T07:47:59.126Z,95151.09
2023-08-11T07:50:00.813Z,95145.50
2023-08-11T07:52:02.622Z,95145.25
2023-08-11T07:54:05.721Z,95143.84
2023-08-11T07:56:07.402Z,95145.50
2023-08-11T07:58:09.330Z,95144.72
2023-08-11T08:00:17.429Z,95148.63
2023-08-11T08:02:19.086Z,95150.47
2023-08-11T08:04:20.754Z,95149.41
2023-08-11T08:06:22.499Z,95150.16
2023-08-11T08:08:24.063Z,95143.06
2023-08-11T08:10:26.549Z,95137.78
2023-08-11T08:12:28.215Z,95150.78
2023-08-11T08:14:29.777Z,95149.44
2023-08-11T08:16:31.448Z,95146.34
2023-08-11T08:18:33.609Z,95145.25
2023-08-11T08:20:35.888Z,95143.13
2023-08-11T08:22:37.668Z,95147.94
2023-08-11T08:24:40.978Z,95147.03
2023-08-11T08:26:42.825Z,95148.41
2023-08-11T08:28:45.011Z,95148.28
2023-08-11T08:30:46.664Z,95145.41
2023-08-11T08:32:48.331Z,95142.88
2023-08-11T08:34:50.300Z,95145.25
2023-08-11T08:36:53.993Z,95142.34
2023-08-11T08:38:56.227Z,95147.06
2023-08-11T08:40:58.067Z,95141.00
2023-08-11T08:42:59.618Z,95144.25
2023-08-11T08:45:01.529Z,95139.34
2023-08-11T08:47:04.148Z,95138.88
2023-08-11T08:49:23.690Z,95143.41
2023-08-11T08:51:25.288Z,95136.53
2023-08-11T08:53:27.326Z,95138.44
2023-08-11T08:55:29.810Z,95142.22
2023-08-11T08:57:31.360Z,95140.81
2023-08-11T08:59:33.035Z,95138.22
2023-08-11T09:01:37.889Z,95141.88
2023-08-11T09:03:41.466Z,95144.59
2023-08-11T09:05:43.250Z,95146.59
2023-08-11T09:07:44.833Z,95144.94
2023-08-11T09:09:46.579Z,95140.19
2023-08-11T09:11:49.740Z,95141.59
2023-08-11T09:13:51.270Z,95139.88
2023-08-11T09:15:52.934Z,95139.25
2023-08-11T09:17:54.671Z,95140.38
2023-08-11T09:19:58.601Z,95136.59
2023-08-11T09:22:00.227Z,95131.91
2023-08-11T09:24:01.868Z,95122.22
2023-08-11T09:26:04.096Z,95123.47
2023-08-11T09:28:06.153Z,95118.38
2023-08-11T09:30:10.724Z,95115.44
2023-08-11T09:32:12.481Z,95115.53
2023-08-11T09:40:32.225Z,95126.38
2023-08-11T09:45:36.652Z,95122.72
2023-08-11T09:47:38.388Z,95120.22
2023-08-11T09:49:40.273Z,95124.97
2023-08-11T09:51:42.637Z,95120.22
2023-08-11T09:53:44.219Z,95117.06
2023-08-11T09:55:45.966Z,95116.16
2023-08-11T09:57:47.518Z,95121.13
2023-08-11T09:59:49.022Z,95117.97
2023-08-11T10:01:50.767Z,95113.19
2023-08-11T10:03:53.334Z,95112.22
2023-08-11T10:05:55.166Z,95109.09
2023-08-11T10:07:56.697Z,95107.03
2023-08-11T10:09:58.435Z,95109.50
2023-08-11T10:12:00.610Z,95102.13
2023-08-11T10:14:03.466Z,95110.66
2023-08-11T10:16:05.202Z,95111.38
2023-08-11T10:18:07.355Z,95100.25
2023-08-11T10:20:10.419Z,95100.78
2023-08-11T10:22:12.615Z,95103.28
2023-08-11T10:24:14.462Z,95111.22
2023-08-11T10:26:16.170Z,95097.13
2023-08-11T10:28:17.931Z,95098.03
2023-08-11T10:30:19.567Z,95105.59
2023-08-11T10:32:23.329Z,95103.63
2023-08-11T10:34:26.130Z,95099.00
2023-08-11T10:36:28.065Z,95101.53
2023-08-11T10:38:33.370Z,95091.28
2023-08-11T10:40:35.648Z,95090.44
2023-08-11T10:42:40.582Z,95090.91
2023-08-11T10:44:46.421Z,95081.16
2023-08-11T10:46:48.936Z,95087.25
2023-08-11T10:49:14.081Z,95082.44
2023-08-11T10:51:34.357Z,95075.41
2023-08-11T10:53:40.237Z,95075.38
2023-08-11T10:55:41.902Z,95082.81
2023-08-11T10:57:43.501Z,95088.50
2023-08-11T10:59:45.017Z,95079.22
2023-08-11T11:01:47.598Z,95082.94
2023-08-11T11:03:50.616Z,95085.97
2023-08-11T11:05:52.619Z,95084.19
2023-08-11T11:07:54.734Z,95084.88
2023-08-11T11:09:56.351Z,95095.28
2023-08-11T11:12:07.415Z,95088.13
2023-08-11T11:14:09.749Z,95091.75
2023-08-11T11:16:11.364Z,95088.28
2023-08-11T11:18:13.065Z,95086.00
2023-08-11T11:20:14.679Z,95088.94
2023-08-11T11:22:16.203Z,95089.25
2023-08-11T11:24:18.469Z,95086.81
2023-08-11T11:26:27.481Z,95089.34
2023-08-11T11:28:31.272Z,95083.56
2023-08-11T11:30:33.597Z,95080.44
2023-08-11T11:32:35.362Z,95076.72
2023-08-11T11:34:41.201Z,95083.09
2023-08-11T11:39:48.401Z,95078.44
2023-08-11T11:41:49.998Z,95085.41
2023-08-11T11:43:56.070Z,95073.63
2023-08-11T11:45:59.569Z,95070.84
2023-08-11T11:48:02.455Z,95068.78
2023-08-11T11:50:06.420Z,95067.97
2023-08-11T11:52:08.385Z,95077.16
2023-08-11T11:54:10.224Z,95071.91
2023-08-11T11:56:15.744Z,95067.09
2023-08-11T11:58:17.830Z,95071.81
2023-08-11T12:00:20.091Z,95063.63
2023-08-11T12:02:23.933Z,95067.50
2023-08-11T12:04:26.089Z,95062.56
2023-08-11T12:06:28.385Z,95069.22
2023-08-11T12:08:30.016Z,95063.69
2023-08-11T12:10:32.622Z,95068.31
2023-08-11T12:12:34.857Z,95074.19
2023-08-11T12:14:36.542Z,95065.72
2023-08-11T12:16:38.247Z,95072.72
2023-08-11T12:18:40.297Z,95076.66
2023-08-11T12:20:41.972Z,95067.22
2023-08-11T12:22:44.939Z,95065.00
2023-08-11T12:24:46.841Z,95070.94
2023-08-11T12:26:49.588Z,95060.28
2023-08-11T12:28:51.391Z,95070.50
2023-08-11T12:30:53.095Z,95066.19
2023-08-11T12:32:54.770Z,95071.47
2023-08-11T12:34:56.433Z,95068.63
2023-08-11T12:36:58.024Z,95072.56
2023-08-11T12:38:59.693Z,95067.59
2023-08-11T12:41:02.376Z,95071.56
2023-08-11T12:43:04.804Z,95066.72
2023-08-11T12:45:06.742Z,95068.97
2023-08-11T12:47:08.442Z,95068.56
2023-08-11T12:49:12.710Z,95066.78
2023-08-11T12:51:15.823Z,95064.13
2023-08-11T12:53:17.503Z,95064.75
2023-08-11T12:55:19.221Z,95058.44
2023-08-11T12:57:20.913Z,95061.66
2023-08-11T12:59:22.665Z,95061.06
2023-08-11T13:01:24.296Z,95063.09
2023-08-11T13:03:26.277Z,95054.69
2023-08-11T13:05:28.356Z,95063.72
2023-08-11T13:07:29.970Z,95062.75
2023-08-11T13:09:32.986Z,95058.78
2023-08-11T13:11:34.560Z,95057.88
2023-08-11T13:13:36.240Z,95056.41
2023-08-11T13:15:37.941Z,95061.91
2023-08-11T13:17:39.748Z,95061.91
2023-08-11T13:19:41.489Z,95052.53
2023-08-11T13:21:43.767Z,95059.31
2023-08-11T13:23:46.067Z,95058.81
2023-08-11T13:25:48.015Z,95056.00
2023-08-11T13:27:49.690Z,95052.97
2023-08-11T13:29:52.590Z,95067.63
2023-08-11T13:31:54.945Z,95063.16
2023-08-11T13:33:56.962Z,95063.75
2023-08-11T13:35:58.800Z,95067.34
2023-08-11T13:38:00.652Z,95053.66
2023-08-11T13:40:02.419Z,95055.38
2023-08-11T13:42:04.004Z,95053.09
2023-08-11T13:44:08.537Z,95053.41
2023-08-11T13:46:10.883Z,95052.56
2023-08-11T13:48:12.688Z,95046.44
2023-08-11T13:50:19.515Z,95053.16
2023-08-11T13:52:21.253Z,95057.41
2023-08-11T13:54:24.947Z,95054.72
2023-08-11T13:56:26.914Z,95058.38
2023-08-11T13:58:28.648Z,95067.69
2023-08-11T14:00:31.961Z,95067.94
2023-08-11T14:02:33.749Z,95054.47
2023-08-11T14:04:36.055Z,95060.59
2023-08-11T14:06:37.794Z,95066.91
2023-08-11T14:08:40.331Z,95061.19
2023-08-11T14:10:45.394Z,95061.22
2023-08-11T14:12:49.831Z,95062.97
2023-08-11T14:14:51.754Z,95061.41
2023-08-11T14:16:53.408Z,95067.09
2023-08-11T14:18:56.657Z,95072.41
2023-08-11T14:20:58.652Z,95066.00
2023-08-11T14:23:00.338Z,95065.13
2023-08-11T14:25:02.008Z,95064.78
2023-08-11T14:27:03.857Z,95064.47
2023-08-11T14:29:06.807Z,95064.56
2023-08-11T14:31:08.449Z,95057.63
2023-08-11T14:33:10.093Z,95075.25
2023-08-11T14:35:11.753Z,95062.91
2023-08-11T14:37:16.784Z,95068.72
2023-08-11T14:39:19.132Z,95069.66
2023-08-11T14:41:20.710Z,95073.66
2023-08-11T14:43:22.441Z,95059.91
2023-08-11T14:45:24.082Z,95067.41
2023-08-11T14:47:25.720Z,95072.72
2023-08-11T14:49:27.467Z,95073.28
2023-08-11T14:51:29.071Z,95069.72
2023-08-11T14:53:31.399Z,95060.75
2023-08-11T14:55:33.118Z,95072.16
2023-08-11T14:57:34.693Z,95065.97
2023-08-11T14:59:36.286Z,95068.91
2023-08-11T15:01:38.012Z,95072.94
2023-08-11T15:03:40.097Z,95067.91
2023-08-11T15:05:42.108Z,95069.72
2023-08-11T15:07:43.862Z,95067.25
2023-08-11T15:09:48.865Z,95062.84
2023-08-11T15:11:50.843Z,95065.31
2023-08-11T15:13:52.676Z,95064.38
2023-08-11T15:15:54.340Z,95062.63
2023-08-11T15:17:55.974Z,95059.16
2023-08-11T15:19:57.777Z,95058.81
2023-08-11T15:21:59.696Z,95063.53
2023-08-11T15:24:01.350Z,95052.44
2023-08-11T15:26:05.060Z,95057.94
2023-08-11T15:28:06.853Z,95060.66
2023-08-11T15:30:08.658Z,95060.69
2023-08-11T15:32:13.013Z,95060.13
2023-08-11T15:34:14.903Z,95061.91
2023-08-11T15:36:17.124Z,95059.50
2023-08-11T15:38:22.438Z,95061.31
2023-08-11T15:40:24.391Z,95069.78
2023-08-11T15:42:26.013Z,95071.66
2023-08-11T15:44:27.838Z,95068.63
2023-08-11T15:46:29.630Z,95066.41
2023-08-11T15:48:32.357Z,95071.81
2023-08-11T15:50:34.168Z,95071.03
2023-08-11T15:52:36.083Z,95069.34
2023-08-11T15:54:37.700Z,95063.75
2023-08-11T15:56:39.428Z,95070.06
2023-08-11T15:58:41.389Z,95070.59
2023-08-11T16:00:43.998Z,95075.16
2023-08-11T16:02:46.425Z,95079.00
2023-08-11T16:04:48.098Z,95077.41
2023-08-11T16:06:49.781Z,95080.00
2023-08-11T16:08:52.292Z,95080.25
2023-08-11T16:10:54.041Z,95075.19
2023-08-11T16:12:55.751Z,95079.78
2023-08-11T16:14:57.410Z,95090.34
2023-08-11T16:16:59.987Z,95080.13
2023-08-11T16:19:01.720Z,95081.06
2023-08-11T16:21:06.922Z,95081.47
2023-08-11T16:23:08.636Z,95087.00
2023-08-11T16:25:10.453Z,95081.03
2023-08-11T16:27:12.304Z,95085.13
2023-08-11T16:29:14.253Z,95080.97
2023-08-11T16:31:16.118Z,95091.41
2023-08-11T16:33:17.717Z,95088.81
2023-08-11T16:35:20.850Z,95085.00
2023-08-11T16:37:24.320Z,95082.97
2023-08-11T16:39:26.216Z,95086.41
2023-08-11T16:41:27.887Z,95091.44
2023-08-11T16:43:29.633Z,95085.19
2023-08-11T16:45:31.873Z,95092.78
2023-08-11T16:47:33.786Z,95084.38
2023-08-11T16:49:35.457Z,95094.50
2023-08-11T16:51:37.328Z,95091.41
2023-08-11T16:53:39.030Z,95090.16
2023-08-11T16:55:40.924Z,95098.44
2023-08-11T16:57:42.666Z,95094.19
2023-08-11T16:59:45.430Z,95093.16
2023-08-11T17:01:47.067Z,95102.16
2023-08-11T17:03:52.229Z,95101.25
2023-08-11T17:05:54.113Z,95102.34
2023-08-11T17:08:04.684Z,95103.47
2023-08-11T17:10:06.728Z,95101.28
2023-08-11T17:12:09.313Z,95102.03
2023-08-11T17:14:13.507Z,95103.19
2023-08-11T17:16:18.601Z,95107.03
2023-08-11T17:18:23.806Z,95103.91
2023-08-11T17:20:25.479Z,95102.28
2023-08-11T17:22:27.436Z,95102.03
2023-08-11T17:24:29.262Z,95104.72
2023-08-11T17:26:30.892Z,95102.63
2023-08-11T17:28:35.658Z,95111.34
2023-08-11T17:30:37.339Z,95116.91
2023-08-11T17:32:39.724Z,95113.88
2023-08-11T17:34:56.602Z,95121.91
2023-08-11T17:36:59.846Z,95119.66
2023-08-11T17:39:01.541Z,95127.09
2023-08-11T17:41:03.277Z,95126.28
2023-08-11T17:43:04.954Z,95125.25
2023-08-11T17:45:06.954Z,95127.94
2023-08-11T17:47:10.266Z,95136.16
2023-08-11T17:49:11.917Z,95135.00
2023-08-11T17:51:13.906Z,95130.91
2023-08-11T17:53:15.586Z,95135.81
2023-08-11T17:55:18.835Z,95137.66
2023-08-11T17:57:20.728Z,95137.19
2023-08-11T17:59:22.330Z,95143.22
2023-08-11T18:01:26.432Z,95149.38
2023-08-11T18:03:28.817Z,95149.03
2023-08-11T18:05:30.630Z,95155.28
2023-08-11T18:07:32.273Z,95152.44
2023-08-11T18:09:33.937Z,95157.41
2023-08-11T18:11:36.192Z,95158.09
2023-08-11T18:13:40.624Z,95165.34
2023-08-11T18:15:44.019Z,95175.53
2023-08-11T18:17:45.678Z,95164.84
2023-08-11T18:19:47.424Z,95174.19
2023-08-11T18:21:49.152Z,95175.25
2023-08-11T18:23:50.774Z,95177.53
2023-08-11T18:25:52.476Z,95182.50
2023-08-11T18:27:56.601Z,95182.34
2023-08-11T18:29:58.166Z,95183.38
2023-08-11T18:31:59.922Z,95185.91
2023-08-11T18:34:02.037Z,95190.84
2023-08-11T18:36:03.783Z,95187.91
2023-08-11T18:38:05.419Z,95198.78
2023-08-11T18:40:07.620Z,95188.53
2023-08-11T18:42:09.465Z,95187.91
2023-08-11T18:44:11.695Z,95196.94
2023-08-11T18:46:13.395Z,95194.66
2023-08-11T18:48:16.053Z,95198.25
2023-08-11T18:50:17.724Z,95193.31
2023-08-11T18:52:19.354Z,95198.19
2023-08-11T18:54:21.081Z,95192.06
2023-08-11T18:56:22.792Z,95194.72
2023-08-11T18:58:26.989Z,95200.31
2023-08-11T19:00:28.613Z,95197.03
2023-08-11T19:02:30.208Z,95205.47
2023-08-11T19:04:31.874Z,95205.91
2023-08-11T19:06:35.529Z,95198.13
2023-08-11T19:08:37.167Z,95200.56
2023-08-11T19:10:38.819Z,95193.00
2023-08-11T19:12:40.490Z,95202.25
2023-08-11T19:14:42.070Z,95198.19
2023-08-11T19:16:44.248Z,95193.88
2023-08-11T19:18:47.129Z,95191.19
2023-08-11T19:20:51.588Z,95197.13
2023-08-11T19:22:53.262Z,95197.59
2023-08-11T19:24:55.057Z,95195.56
2023-08-11T19:26:56.606Z,95195.16
2023-08-11T19:28:59.504Z,95199.09
2023-08-11T19:31:01.086Z,95200.34
2023-08-11T19:33:03.024Z,95192.34
2023-08-11T19:35:05.264Z,95191.16
2023-08-11T19:37:06.845Z,95193.28
2023-08-11T19:39:09.800Z,95191.22
2023-08-11T19:41:11.489Z,95188.41
2023-08-11T19:43:13.018Z,95185.75
2023-08-11T19:45:15.014Z,95186.00
2023-08-11T19:47:16.574Z,95192.78
2023-08-11T19:49:21.498Z,95184.53
2023-08-11T19:51:23.896Z,95187.22
2023-08-11T19:53:25.510Z,95186.59
2023-08-11T19:55:27.078Z,95188.06
2023-08-11T19:57:28.766Z,95193.41
2023-08-11T19:59:30.302Z,95198.38
2023-08-11T20:01:31.886Z,95193.09
2023-08-11T20:03:33.680Z,95188.19
2023-08-11T20:05:35.910Z,95191.44
2023-08-11T20:07:38.258Z,95195.16
2023-08-11T20:09:41.041Z,95188.78
2023-08-11T20:11:42.858Z,95203.81
2023-08-11T20:13:44.441Z,95187.84
2023-08-11T20:15:47.979Z,95197.47
2023-08-11T20:17:49.743Z,95200.34
2023-08-11T20:19:51.443Z,95201.75
2023-08-11T20:21:53.645Z,95198.06
2023-08-11T20:23:55.376Z,95196.06
2023-08-11T20:25:56.842Z,95198.53
2023-08-11T20:27:59.013Z,95201.81
2023-08-11T20:30:00.610Z,95201.81
2023-08-11T20:32:04.545Z,95203.50
2023-08-11T20:34:06.793Z,95202.06
2023-08-11T20:36:08.484Z,95202.25
2023-08-11T20:38:09.991Z,95197.34
2023-08-11T20:40:13.636Z,95195.34
2023-08-11T20:42:16.442Z,95195.16
2023-08-11T20:44:18.093Z,95201.91
2023-08-11T20:46:19.690Z,95199.22
2023-08-11T20:48:21.569Z,95193.31
2023-08-11T20:50:23.158Z,95188.56
2023-08-11T20:52:24.838Z,95188.56
2023-08-11T20:54:26.612Z,95193.31
2023-08-11T20:56:28.149Z,95187.84
2023-08-11T20:58:30.488Z,95197.66
2023-08-11T21:00:32.046Z,95195.84
2023-08-11T21:02:33.586Z,95192.78
2023-08-11T21:04:35.395Z,95189.28
2023-08-11T21:06:36.996Z,95182.75
2023-08-11T21:08:44.877Z,95187.03
2023-08-11T21:10:46.939Z,95191.34
2023-08-11T21:12:48.535Z,95189.31
2023-08-11T21:14:50.124Z,95194.41
2023-08-11T21:16:51.849Z,95190.53
2023-08-11T21:18:53.616Z,95196.72
2023-08-11T21:20:55.208Z,95190.16
2023-08-11T21:22:56.727Z,95190.16
2023-08-11T21:24:58.316Z,95193.66
2023-08-11T21:27:00.041Z,95193.25
2023-08-11T21:29:01.881Z,95203.28
2023-08-11T21:31:16.714Z,95198.81
2023-08-11T21:33:18.899Z,95207.59
2023-08-11T21:35:20.758Z,95210.06
2023-08-11T21:37:22.355Z,95213.59
2023-08-11T21:39:23.939Z,95213.19
2023-08-11T21:41:25.664Z,95210.34
2023-08-11T21:43:27.422Z,95208.69
2023-08-11T21:45:29.073Z,95213.44
2023-08-11T21:47:33.727Z,95214.47
2023-08-11T21:49:36.938Z,95213.84
2023-08-11T21:51:38.642Z,95216.53
2023-08-11T21:53:41.214Z,95218.56
2023-08-11T21:55:43.039Z,95218.13
2023-08-11T21:57:44.699Z,95225.50
2023-08-11T21:59:46.349Z,95223.47
2023-08-11T22:01:48.141Z,95216.13
2023-08-11T22:03:49.830Z,95218.97
2023-08-11T22:05:51.401Z,95220.00
2023-08-11T22:07:56.167Z,95215.50
2023-08-11T22:09:57.665Z,95225.09
2023-08-11T22:11:59.332Z,95214.09
2023-08-11T22:14:01.180Z,95221.03
2023-08-11T22:16:02.727Z,95224.50
2023-08-11T22:18:06.075Z,95213.06
2023-08-11T22:20:09.548Z,95220.00
2023-08-11T22:22:15.091Z,95212.25
2023-08-11T22:24:24.026Z,95213.69
2023-08-11T22:26:32.383Z,95221.03
2023-08-11T22:28:33.992Z,95212.03
2023-08-11T22:30:36.185Z,95211.63
2023-08-11T22:32:37.987Z,95213.47
2023-08-11T22:34:39.517Z,95207.56
2023-08-11T22:36:41.057Z,95210.81
2023-08-11T22:38:42.908Z,95208.75
2023-08-11T22:40:44.555Z,95211.63
2023-08-11T22:42:46.173Z,95213.69
2023-08-11T22:44:47.848Z,95215.53
2023-08-11T22:46:49.389Z,95204.88
2023-08-11T22:48:51.094Z,95211.03
2023-08-11T22:50:52.652Z,95206.34
2023-08-11T22:52:54.366Z,95204.50
2023-08-11T22:54:56.096Z,95198.16
2023-08-11T22:56:57.693Z,95198.78
2023-08-11T22:59:00.308Z,95200.41
2023-08-11T23:01:01.949Z,95196.94
2023-08-11T23:03:04.796Z,95193.84
2023-08-11T23:05:07.246Z,95188.75
2023-08-11T23:07:09.232Z,95196.72
2023-08-11T23:09:11.240Z,95193.66
2023-08-11T23:11:12.944Z,95197.34
2023-08-11T23:13:17.288Z,95194.06
2023-08-11T23:15:19.472Z,95195.06
2023-08-11T23:17:26.205Z,95199.59
2023-08-11T23:19:27.877Z,95191.00
2023-08-11T23:21:29.624Z,95200.38
2023-08-11T23:23:31.226Z,95191.56
2023-08-11T23:25:32.908Z,95192.81
2023-08-11T23:27:34.542Z,95198.09
2023-08-11T23:29:36.281Z,95187.88
2023-08-11T23:31:39.178Z,95189.91
2023-08-11T23:33:42.669Z,95188.91
2023-08-11T23:35:44.321Z,95186.66
2023-08-11T23:37:46.336Z,95193.19
2023-08-11T23:39:47.905Z,95192.16
2023-08-11T23:41:49.607Z,95189.28
2023-08-11T23:43:51.232Z,95189.91
2023-08-11T23:45:52.872Z,95189.09
2023-08-11T23:47:54.788Z,95187.88
2023-08-11T23:49:56.809Z,95186.44
2023-08-11T23:51:58.360Z,95191.94
2023-08-11T23:54:00.259Z,95184.41
2023-08-11T23:56:01.972Z,95185.81
2023-08-11T23:58:03.716Z,95187.84
